Latest Conditions
At L.F.Wade Int. Airport
Recorded at 7:55 pm
Mostly Cloudy
Temp.: 
28°C/83°F
Humidity: 
74%
Wind: 
ESE 5KT
or 6mph
UV Index: 
0
Island Observations
 
Observations
Wednesday, August 21, 2019

Observations are in local time and taken at least once an hour, or upon the start and end of specified events such as showers and thunderstorms.

Time Sky / Weather Wind Speed/Gusts Temp. R.H. Pressure
     knots (mph)  °C (°F)  %  mb / "Hg
 19:55 Mostly Cloudy  ESE 5/0 (6/0) 28(83) 74 1023 / 30.20
 18:55 Mostly Cloudy  SE 5/0 (6/0) 28(83) 74 1022 / 30.19
 17:55 Mostly Cloudy  SE 6/0 (7/0) 29(84) 74 1023 / 30.20
 16:55 Mostly Cloudy  SE 6/0 (7/0) 29(85) 70 1023 / 30.20
 15:55 Mostly Cloudy  SSE 6/0 (7/0) 29(85) 70 1023 / 30.20
 14:55 Mostly Cloudy  SSE 6/0 (7/0) 30(85) 71 1023 / 30.21
 13:55 Mostly Cloudy  SSE 6/0 (7/0) 30(86) 65 1023 / 30.22
 12:55 Mostly Cloudy  SE 8/0 (9/0) 30(85) 71 1024 / 30.23
 11:55 Partly Cloudy  SSE 6/0 (7/0) 29(85) 71 1024 / 30.24
 10:55 Mostly Cloudy  SE 5/0 (6/0) 29(84) 72 1024 / 30.24
 09:55 Partly Cloudy  SE 4/0 (5/0) 29(84) 73 1024 / 30.23
 08:55 Partly Cloudy  ESE 3/0 (3/0) 28(83) 78 1023 / 30.22
 07:55 Partly Cloudy  VRB 2/0 (2/0) 27(81) 87 1023 / 30.22
 06:55 Partly Cloudy  NE 2/0 (2/0) 25(78) 94 1023 / 30.21
 05:55 Mostly Cloudy Showers N 1/0 (1/0) 25(78) 94 1023 / 30.20
 04:55 Partly Cloudy Showers N 1/0 (1/0) 25(77) 94 1022 / 30.19
 03:55 Few Clouds  NE 2/0 (2/0) 26(78) 93 1022 / 30.19
 02:55 Few Clouds  N 2/0 (2/0) 26(78) 92 1023 / 30.20
 01:55 Few Clouds  SSE 2/0 (2/0) 26(79) 91 1023 / 30.20
 00:55 Few Clouds  S 4/0 (5/0) 26(79) 90 1023 / 30.20
 23:55 Few Clouds  SE 2/0 (2/0) 26(78) 93 1023 / 30.21
 22:55 Few Clouds  VRB 1/0 (1/0) 26(78) 93 1023 / 30.21
 21:55 Few Clouds  VRB 1/0 (1/0) 26(79) 92 1023 / 30.21
 20:55 Few Clouds  VRB 1/0 (1/0) 26(79) 88 1023 / 30.20
 19:55 Few Clouds  Calm 28(82) 76 1022 / 30.19
 18:55 Few Clouds  SSW 3/0 (3/0) 28(83) 74 1022 / 30.19
 17:55 Partly Cloudy Showers SW 6/0 (7/0) 27(81) 80 1023 / 30.20
 17:25 Partly Cloudy Showers VRB 2/0 (2/0) 26(80) 86 1022 / 30.19
 17:00 Mostly Cloudy Thunderstorm NW 7/0 (8/0) 25(77) 89 1023 / 30.20
 16:55 Mostly Cloudy Thunderstorm NW 11/0 (13/0) 25(77) 88 1023 / 30.20
 16:48 Mostly Cloudy Showers NW 13/0 (15/0) 25(76) 87 1023 / 30.20
 16:43 Mostly Cloudy Showers NW 15/0 (17/0) 25(76) 85 1023 / 30.20
 16:33 Mostly Cloudy Thunderstorm N 10/0 (12/0) 24(76) 90 1023 / 30.21
 16:24 Mostly Cloudy Thunderstorm NNE 10/0 (12/0) 25(77) 90 1023 / 30.20
 16:19 Mostly Cloudy Thunderstorm VRB 4/0 (5/0) 26(80) 85 1023 / 30.20
 16:12 Mostly Cloudy Thunderstorm ESE 8/0 (9/0) 26(80) 82 1022 / 30.19
 15:57 Mostly Cloudy Thunderstorm SE 11/0 (13/0) 27(81) 77 1023 / 30.20
 15:55 Mostly Cloudy Thunderstorm SSW 18/0 (21/0) 28(82) 73 1023 / 30.20
 15:47 Partly Cloudy Showers SSW 20/0 (23/0) 27(81) 78 1022 / 30.19
 15:10 Partly Cloudy Showers SW 6/0 (7/0) 30(85) 74 1023 / 30.20
 14:55 Partly Cloudy Showers SSW 7/0 (8/0) 29(84) 78 1023 / 30.20
 13:55 Few Clouds  S 6/0 (7/0) 29(84) 73 1023 / 30.20
 12:55 Few Clouds  S 7/0 (8/0) 30(85) 70 1023 / 30.21
 11:55 Few Clouds  S 5/0 (6/0) 30(85) 70 1023 / 30.22
 10:55 Few Clouds  SW 3/0 (3/0) 29(84) 72 1023 / 30.22
 09:55 Few Clouds  WSW 4/0 (5/0) 29(84) 76 1023 / 30.22
 08:55 Few Clouds Showers WSW 8/0 (9/0) 27(80) 78 1023 / 30.22
 07:55 Few Clouds  WSW 4/0 (5/0) 28(82) 79 1023 / 30.22
 06:55 Few Clouds  WSW 5/0 (6/0) 27(80) 85 1023 / 30.20
 05:55 Few Clouds  SW 4/0 (5/0) 27(80) 82 1022 / 30.18
 04:55 Partly Cloudy  SW 4/0 (5/0) 27(80) 82 1022 / 30.17
 03:55 Few Clouds  SSW 4/0 (5/0) 27(81) 81 1021 / 30.16
 02:55 Few Clouds Showers S 5/0 (6/0) 28(82) 78 1022 / 30.17
 01:55 Few Clouds  S 4/0 (5/0) 28(82) 79 1022 / 30.17
 00:55 Few Clouds  S 5/0 (6/0) 28(82) 78 1022 / 30.18
 23:55 Partly Cloudy  S 5/0 (6/0) 28(82) 77 1022 / 30.18
 22:55 Few Clouds  S 3/0 (3/0) 28(82) 78 1022 / 30.19
 21:55 Few Clouds  S 3/0 (3/0) 28(82) 82 1022 / 30.19
 20:55 Partly Cloudy  SW 3/0 (3/0) 28(82) 79 1022 / 30.17
 19:55 Partly Cloudy Showers SSW 4/0 (5/0) 28(82) 80 1022 / 30.17
 18:55 Partly Cloudy Showers VRB 2/0 (2/0) 29(84) 75 1021 / 30.16
 17:55 Partly Cloudy Showers SSE 3/0 (3/0) 29(84) 74 1022 / 30.17
 17:29 Mostly Cloudy Showers S 4/0 (5/0) 29(83) 77 1022 / 30.17
 17:02 Partly Cloudy Showers S 10/0 (12/0) 28(83) 77 1022 / 30.17
 16:55 Mostly Cloudy Showers SW 5/0 (6/0) 28(82) 78 1022 / 30.17
 16:11 Mostly Cloudy Showers E 4/0 (5/0) 28(83) 79 1022 / 30.17
 15:55 Mostly Cloudy Showers WNW 5/0 (6/0) 28(83) 79 1022 / 30.17
 15:19 Mostly Cloudy Showers S 6/0 (7/0) 29(84) 74 1022 / 30.18
 14:55 Mostly Cloudy Showers SSW 6/0 (7/0) 29(84) 74 1022 / 30.19
 14:42 Mostly Cloudy Showers SSW 5/0 (6/0) 29(84) 74 1022 / 30.19
 14:30 Partly Cloudy Showers S 6/0 (7/0) 29(84) 75 1022 / 30.19
 14:19 Partly Cloudy Showers SSW 6/0 (7/0) 29(84) 75 1022 / 30.19
 13:55 Partly Cloudy  S 6/0 (7/0) 30(86) 74 1023 / 30.20
 12:55 Partly Cloudy Showers S 4/0 (5/0) 30(85) 73 1023 / 30.21
 11:55 Few Clouds Showers VRB 1/0 (1/0) 29(83) 81 1023 / 30.22
 11:32 Partly Cloudy Showers W 1/0 (1/0) 28(83) 81 1023 / 30.22
 11:23 Partly Cloudy Showers VRB 3/0 (3/0) 27(80) 86 1023 / 30.22
 11:05 Mostly Cloudy Showers N 7/0 (8/0) 26(79) 86 1024 / 30.23
 11:01 Mostly Cloudy Showers NNW 8/0 (9/0) 26(79) 85 1023 / 30.22
 10:55 Mostly Cloudy Showers NW 10/0 (12/0) 26(79) 85 1023 / 30.22
 10:47 Mostly Cloudy Showers WNW 9/0 (10/0) 27(80) 83 1023 / 30.22
 10:35 Mostly Cloudy Showers SSW 7/0 (8/0) 28(82) 78 1023 / 30.22
 09:55 Few Clouds Showers S 5/0 (6/0) 30(86) 73 1023 / 30.21
 08:55 Few Clouds  SSW 5/0 (6/0) 29(84) 72 1023 / 30.20
 07:55 Few Clouds  S 3/0 (3/0) 28(82) 79 1022 / 30.19
 06:55 Few Clouds  S 4/0 (5/0) 27(81) 84 1022 / 30.17
 05:55 Few Clouds  S 5/0 (6/0) 27(81) 80 1021 / 30.16
 04:55 Few Clouds  S 5/0 (6/0) 27(81) 78 1021 / 30.15
 03:55 Few Clouds  S 5/0 (6/0) 28(82) 79 1021 / 30.14
 02:55 Few Clouds  SSE 7/0 (8/0) 28(82) 80 1021 / 30.15
 01:55 Few Clouds  SE 6/0 (7/0) 28(82) 76 1021 / 30.16
 00:55 Few Clouds  SE 7/0 (8/0) 28(82) 81 1022 / 30.17
 23:55 Partly Cloudy  SE 6/0 (7/0) 28(82) 82 1022 / 30.18
 22:55 Few Clouds  SE 4/0 (5/0) 28(82) 82 1022 / 30.19
 21:55 Few Clouds  E 4/0 (5/0) 27(81) 81 1022 / 30.19
 20:55 Few Clouds  N 3/0 (3/0) 27(81) 81 1022 / 30.18
 19:55 Partly Cloudy  NNW 3/0 (3/0) 28(82) 76 1022 / 30.18
 18:55 Partly Cloudy Showers NNW 9/0 (10/0) 26(80) 83 1022 / 30.18
 18:20 Partly Cloudy Thunderstorm WNW 10/0 (12/0) 27(81) 76 1022 / 30.18
 17:55 Partly Cloudy Thunderstorm SSE 5/0 (6/0) 28(83) 78 1022 / 30.18
Island AWOS